sensor_id;sensor_type;location;lat;lon;timestamp;pressure;altitude;pressure_sealevel;temperature;humidity
4123;BME280;2075;51.062;6.920;2023-04-09T00:01:03;-10909.50;;;-144.48;100.00
4123;BME280;2075;51.062;6.920;2023-04-09T00:03:48;-11161.53;;;-144.48;100.00
4123;BME280;2075;51.062;6.920;2023-04-09T00:06:35;-11161.53;;;-144.48;100.00
4123;BME280;2075;51.062;6.920;2023-04-09T00:09:21;-11161.53;;;-144.48;100.00
4123;BME280;2075;51.062;6.920;2023-04-09T00:12:06;-11413.53;;;-144.48;100.00
4123;BME280;2075;51.062;6.920;2023-04-09T00:14:51;-11665.53;;;-144.48;100.00
4123;BME280;2075;51.062;6.920;2023-04-09T00:17:37;-11667.00;;;-144.48;100.00
4123;BME280;2075;51.062;6.920;2023-04-09T00:20:22;-11667.00;;;-144.48;100.00
4123;BME280;2075;51.062;6.920;2023-04-09T00:23:09;-11667.00;;;-144.48;100.00
4123;BME280;2075;51.062;6.920;2023-04-09T00:25:54;-11667.00;;;-144.48;100.00
4123;BME280;2075;51.062;6.920;2023-04-09T00:28:40;-11667.00;;;-144.48;100.00
4123;BME280;2075;51.062;6.920;2023-04-09T00:31:25;-11667.00;;;-144.48;100.00
4123;BME280;2075;51.062;6.920;2023-04-09T00:34:13;-11667.00;;;-144.48;100.00
4123;BME280;2075;51.062;6.920;2023-04-09T00:36:59;-11665.53;;;-144.48;100.00
4123;BME280;2075;51.062;6.920;2023-04-09T00:39:45;-11161.53;;;-144.48;100.00
4123;BME280;2075;51.062;6.920;2023-04-09T00:42:31;-10657.44;;;-144.48;100.00
4123;BME280;2075;51.062;6.920;2023-04-09T00:45:17;-9901.19;;;-144.48;100.00
4123;BME280;2075;51.062;6.920;2023-04-09T00:48:02;-9144.72;;;-144.48;100.00
4123;BME280;2075;51.062;6.920;2023-04-09T00:50:50;-8640.34;;;-144.48;100.00
4123;BME280;2075;51.062;6.920;2023-04-09T00:53:36;-9144.72;;;-144.48;100.00
4123;BME280;2075;51.062;6.920;2023-04-09T00:56:25;-9396.91;;;-144.48;100.00
4123;BME280;2075;51.062;6.920;2023-04-09T00:59:11;-10153.28;;;-144.48;100.00
4123;BME280;2075;51.062;6.920;2023-04-09T01:01:56;-11161.53;;;-144.48;100.00
4123;BME280;2075;51.062;6.920;2023-04-09T01:04:42;-11413.53;;;-144.48;100.00
4123;BME280;2075;51.062;6.920;2023-04-09T01:07:38;-11667.00;;;-144.48;100.00
4123;BME280;2075;51.062;6.920;2023-04-09T01:10:34;-11667.00;;;-144.48;100.00
4123;BME280;2075;51.062;6.920;2023-04-09T01:13:29;-11667.00;;;-144.48;100.00
4123;BME280;2075;51.062;6.920;2023-04-09T01:16:17;-11667.00;;;-144.48;100.00
4123;BME280;2075;51.062;6.920;2023-04-09T01:19:09;-11667.00;;;-144.48;100.00
4123;BME280;2075;51.062;6.920;2023-04-09T01:21:59;-11667.00;;;-144.48;100.00
4123;BME280;2075;51.062;6.920;2023-04-09T01:25:01;-11667.00;;;-144.48;100.00
4123;BME280;2075;51.062;6.920;2023-04-09T01:28:11;-11667.00;;;-144.48;100.00
4123;BME280;2075;51.062;6.920;2023-04-09T01:31:01;-11667.00;;;-144.48;100.00
4123;BME280;2075;51.062;6.920;2023-04-09T01:33:48;-11667.00;;;-144.48;100.00
4123;BME280;2075;51.062;6.920;2023-04-09T01:36:35;-11667.00;;;-144.48;100.00
4123;BME280;2075;51.062;6.920;2023-04-09T01:39:24;-11667.00;;;-144.48;100.00
4123;BME280;2075;51.062;6.920;2023-04-09T01:42:11;-11665.53;;;-144.48;100.00
4123;BME280;2075;51.062;6.920;2023-04-09T01:44:59;-11413.53;;;-144.48;100.00
4123;BME280;2075;51.062;6.920;2023-04-09T01:47:46;-11161.53;;;-144.48;100.00
4123;BME280;2075;51.062;6.920;2023-04-09T01:50:32;-11161.53;;;-144.48;100.00
4123;BME280;2075;51.062;6.920;2023-04-09T01:53:17;-10909.50;;;-144.48;100.00
4123;BME280;2075;51.062;6.920;2023-04-09T01:56:03;-9901.19;;;-144.48;100.00
4123;BME280;2075;51.062;6.920;2023-04-09T01:58:48;-8640.34;;;-144.48;100.00
4123;BME280;2075;51.062;6.920;2023-04-09T02:01:38;-7883.59;;;-144.48;100.00
4123;BME280;2075;51.062;6.920;2023-04-09T02:04:29;-8388.09;;;-144.48;100.00
4123;BME280;2075;51.062;6.920;2023-04-09T02:07:22;-8640.34;;;-144.48;100.00
4123;BME280;2075;51.062;6.920;2023-04-09T02:10:10;-8388.09;;;-144.48;100.00
4123;BME280;2075;51.062;6.920;2023-04-09T02:12:59;-7379.00;;;-144.48;100.00
4123;BME280;2075;51.062;6.920;2023-04-09T02:15:46;-6874.34;;;-144.48;100.00
4123;BME280;2075;51.062;6.920;2023-04-09T02:18:33;-6621.97;;;-144.48;100.00
4123;BME280;2075;51.062;6.920;2023-04-09T02:21:20;-5612.34;;;-144.48;100.00
4123;BME280;2075;51.062;6.920;2023-04-09T02:24:05;-5359.88;;;-144.48;100.00
4123;BME280;2075;51.062;6.920;2023-04-09T02:26:51;-5864.78;;;-144.48;100.00
4123;BME280;2075;51.062;6.920;2023-04-09T02:29:38;-5864.78;;;-144.48;100.00
4123;BME280;2075;51.062;6.920;2023-04-09T02:32:24;-6117.19;;;-144.48;100.00
4123;BME280;2075;51.062;6.920;2023-04-09T02:35:10;-6621.97;;;-144.48;100.00
4123;BME280;2075;51.062;6.920;2023-04-09T02:37:56;-7631.31;;;-144.48;100.00
4123;BME280;2075;51.062;6.920;2023-04-09T02:40:41;-7631.31;;;-144.48;100.00
4123;BME280;2075;51.062;6.920;2023-04-09T02:43:27;-7631.31;;;-144.48;100.00
4123;BME280;2075;51.062;6.920;2023-04-09T02:46:12;-7379.00;;;-144.48;100.00
4123;BME280;2075;51.062;6.920;2023-04-09T02:48:57;-7379.00;;;-144.48;100.00
4123;BME280;2075;51.062;6.920;2023-04-09T02:51:44;-8135.88;;;-144.48;100.00
4123;BME280;2075;51.062;6.920;2023-04-09T02:54:29;-9396.91;;;-144.48;100.00
4123;BME280;2075;51.062;6.920;2023-04-09T02:57:15;-9901.19;;;-144.48;100.00
4123;BME280;2075;51.062;6.920;2023-04-09T03:00:00;-9901.19;;;-144.48;100.00
4123;BME280;2075;51.062;6.920;2023-04-09T03:02:46;-9396.91;;;-144.48;100.00
4123;BME280;2075;51.062;6.920;2023-04-09T03:05:31;-9396.91;;;-144.48;100.00
4123;BME280;2075;51.062;6.920;2023-04-09T03:08:17;-9396.91;;;-144.48;100.00
4123;BME280;2075;51.062;6.920;2023-04-09T03:11:03;-9649.03;;;-144.48;100.00
4123;BME280;2075;51.062;6.920;2023-04-09T03:13:48;-9901.19;;;-144.48;100.00
4123;BME280;2075;51.062;6.920;2023-04-09T03:16:33;-8640.34;;;-144.48;100.00
4123;BME280;2075;51.062;6.920;2023-04-09T03:19:19;-8388.09;;;-144.48;100.00
4123;BME280;2075;51.062;6.920;2023-04-09T03:22:04;-8135.88;;;-144.48;100.00
4123;BME280;2075;51.062;6.920;2023-04-09T03:24:51;-7883.59;;;-144.48;100.00
4123;BME280;2075;51.062;6.920;2023-04-09T03:27:36;-6874.34;;;-144.48;100.00
4123;BME280;2075;51.062;6.920;2023-04-09T03:30:21;-5864.78;;;-144.48;100.00
4123;BME280;2075;51.062;6.920;2023-04-09T03:33:07;-6117.19;;;-144.48;100.00
4123;BME280;2075;51.062;6.920;2023-04-09T03:36:03;-6369.59;;;-144.48;100.00
4123;BME280;2075;51.062;6.920;2023-04-09T03:39:08;-6874.34;;;-144.48;100.00
4123;BME280;2075;51.062;6.920;2023-04-09T03:41:59;-7379.00;;;-144.48;100.00
4123;BME280;2075;51.062;6.920;2023-04-09T03:44:52;-7883.59;;;-144.48;100.00
4123;BME280;2075;51.062;6.920;2023-04-09T03:47:45;-7883.59;;;-144.48;100.00
4123;BME280;2075;51.062;6.920;2023-04-09T03:50:31;-8135.88;;;-144.48;100.00
4123;BME280;2075;51.062;6.920;2023-04-09T03:53:17;-8388.09;;;-144.48;100.00
4123;BME280;2075;51.062;6.920;2023-04-09T03:56:03;-8640.34;;;-144.48;100.00
4123;BME280;2075;51.062;6.920;2023-04-09T03:58:51;-9396.91;;;-144.48;100.00
4123;BME280;2075;51.062;6.920;2023-04-09T04:01:41;-10153.28;;;-144.48;100.00
4123;BME280;2075;51.062;6.920;2023-04-09T04:04:27;-10405.38;;;-144.48;100.00
4123;BME280;2075;51.062;6.920;2023-04-09T04:07:14;-10405.38;;;-144.48;100.00
4123;BME280;2075;51.062;6.920;2023-04-09T04:10:08;-10909.50;;;-144.48;100.00
4123;BME280;2075;51.062;6.920;2023-04-09T04:12:55;-11161.53;;;-144.48;100.00
4123;BME280;2075;51.062;6.920;2023-04-09T04:15:49;-11161.53;;;-144.48;100.00
4123;BME280;2075;51.062;6.920;2023-04-09T04:18:39;-11161.53;;;-144.48;100.00
4123;BME280;2075;51.062;6.920;2023-04-09T04:21:24;-10657.44;;;-144.48;100.00
4123;BME280;2075;51.062;6.920;2023-04-09T04:24:16;-10405.38;;;-144.48;100.00
4123;BME280;2075;51.062;6.920;2023-04-09T04:27:01;-9649.03;;;-144.48;100.00
4123;BME280;2075;51.062;6.920;2023-04-09T04:29:51;-9649.03;;;-144.48;100.00
4123;BME280;2075;51.062;6.920;2023-04-09T04:32:54;-9649.03;;;-144.48;100.00
4123;BME280;2075;51.062;6.920;2023-04-09T04:35:39;-9901.19;;;-144.48;100.00
4123;BME280;2075;51.062;6.920;2023-04-09T04:38:30;-10153.28;;;-144.48;100.00
4123;BME280;2075;51.062;6.920;2023-04-09T04:41:18;-10657.44;;;-144.48;100.00
4123;BME280;2075;51.062;6.920;2023-04-09T04:44:11;-10909.50;;;-144.48;100.00
4123;BME280;2075;51.062;6.920;2023-04-09T04:46:59;-11161.53;;;-144.48;100.00
4123;BME280;2075;51.062;6.920;2023-04-09T04:49:45;-10909.50;;;-144.48;100.00
4123;BME280;2075;51.062;6.920;2023-04-09T04:52:31;-11161.53;;;-144.48;100.00
4123;BME280;2075;51.062;6.920;2023-04-09T04:55:17;-11413.53;;;-144.48;100.00
4123;BME280;2075;51.062;6.920;2023-04-09T04:58:03;-11665.53;;;-144.48;100.00
4123;BME280;2075;51.062;6.920;2023-04-09T05:00:57;-11665.53;;;-144.48;100.00
4123;BME280;2075;51.062;6.920;2023-04-09T05:03:43;-11665.53;;;-144.48;100.00
4123;BME280;2075;51.062;6.920;2023-04-09T05:06:47;-11665.53;;;-144.48;100.00
4123;BME280;2075;51.062;6.920;2023-04-09T05:09:36;-11665.53;;;-144.48;100.00
4123;BME280;2075;51.062;6.920;2023-04-09T05:12:25;-11665.53;;;-144.48;100.00
4123;BME280;2075;51.062;6.920;2023-04-09T05:15:11;-10909.50;;;-144.48;100.00
4123;BME280;2075;51.062;6.920;2023-04-09T05:17:57;-10153.28;;;-144.48;100.00
4123;BME280;2075;51.062;6.920;2023-04-09T05:20:43;-8640.34;;;-144.48;100.00
4123;BME280;2075;51.062;6.920;2023-04-09T05:23:30;-6369.59;;;-144.48;100.00
4123;BME280;2075;51.062;6.920;2023-04-09T05:26:15;-3844.69;;;-144.48;100.00
4123;BME280;2075;51.062;6.920;2023-04-09T05:29:06;-559.44;;;-144.48;100.00
4123;BME280;2075;51.062;6.920;2023-04-09T05:31:52;2476.06;;;-144.48;100.00
4123;BME280;2075;51.062;6.920;2023-04-09T05:34:52;6274.38;;;-144.48;100.00
4123;BME280;2075;51.062;6.920;2023-04-09T05:37:38;10584.44;;;-144.48;100.00
4123;BME280;2075;51.062;6.920;2023-04-09T05:40:28;16170.53;;;-144.48;100.00
4123;BME280;2075;51.062;6.920;2023-04-09T05:43:14;28136.09;;;-144.48;100.00
4123;BME280;2075;51.062;6.920;2023-04-09T05:46:01;34773.81;;;-144.48;100.00
4123;BME280;2075;51.062;6.920;2023-04-09T05:48:46;44242.59;;;-144.48;100.00
4123;BME280;2075;51.062;6.920;2023-04-09T05:51:32;50142.03;;;-144.48;100.00
4123;BME280;2075;51.062;6.920;2023-04-09T05:54:18;56823.38;;;-144.48;100.00
4123;BME280;2075;51.062;6.920;2023-04-09T05:57:05;66354.19;;;-144.48;100.00
4123;BME280;2075;51.062;6.920;2023-04-09T05:59:53;94133.59;;;-144.48;76.17
4123;BME280;2075;51.062;6.920;2023-04-09T06:02:41;93524.16;;;-144.48;48.38
4123;BME280;2075;51.062;6.920;2023-04-09T06:05:27;93209.34;;;-144.48;39.99
4123;BME280;2075;51.062;6.920;2023-04-09T06:08:12;93032.63;;;-144.48;35.40
4123;BME280;2075;51.062;6.920;2023-04-09T06:10:58;93075.28;;;-144.48;34.51
4123;BME280;2075;51.062;6.920;2023-04-09T06:13:45;92922.97;;;-144.48;33.92
4123;BME280;2075;51.062;6.920;2023-04-09T06:16:32;92514.78;;;-144.48;31.72
4123;BME280;2075;51.062;6.920;2023-04-09T06:19:18;92764.56;;;-144.48;31.34
4123;BME280;2075;51.062;6.920;2023-04-09T06:22:03;92892.50;;;-144.48;31.89
4123;BME280;2075;51.062;6.920;2023-04-09T06:24:49;92803.16;;;-144.48;31.45
4123;BME280;2075;51.062;6.920;2023-04-09T06:27:34;92774.72;;;-144.48;30.84
4123;BME280;2075;51.062;6.920;2023-04-09T06:30:21;92847.81;;;-144.48;31.12
4123;BME280;2075;51.062;6.920;2023-04-09T06:33:06;92886.41;;;-144.48;31.43
4123;BME280;2075;51.062;6.920;2023-04-09T06:35:52;92937.19;;;-144.48;31.81
4123;BME280;2075;51.062;6.920;2023-04-09T06:38:37;92772.69;;;-144.48;31.46
4123;BME280;2075;51.062;6.920;2023-04-09T06:41:23;93010.31;;;-144.48;31.96
4123;BME280;2075;51.062;6.920;2023-04-09T06:44:08;92809.25;;;-144.48;31.29
4123;BME280;2075;51.062;6.920;2023-04-09T06:46:55;92717.84;;;-144.48;30.81
4123;BME280;2075;51.062;6.920;2023-04-09T06:49:40;92705.66;;;-144.48;30.53
4123;BME280;2075;51.062;6.920;2023-04-09T06:52:26;93000.16;;;-144.48;32.00
4123;BME280;2075;51.062;6.920;2023-04-09T06:55:11;92979.84;;;-144.48;32.03
4123;BME280;2075;51.062;6.920;2023-04-09T06:57:57;92801.13;;;-144.48;31.55
4123;BME280;2075;51.062;6.920;2023-04-09T07:00:42;92927.03;;;-144.48;31.76
4123;BME280;2075;51.062;6.920;2023-04-09T07:03:29;92833.63;;;-144.48;31.10
4123;BME280;2075;51.062;6.920;2023-04-09T07:06:14;92799.09;;;-144.48;31.16
4123;BME280;2075;51.062;6.920;2023-04-09T07:09:01;92681.31;;;-144.48;30.69
4123;BME280;2075;51.062;6.920;2023-04-09T07:11:46;92429.50;;;-144.48;29.60
4123;BME280;2075;51.062;6.920;2023-04-09T07:14:31;92354.38;;;-144.48;29.12
4123;BME280;2075;51.062;6.920;2023-04-09T07:17:17;92413.25;;;-144.48;29.38
4123;BME280;2075;51.062;6.920;2023-04-09T07:20:05;92263.00;;;-144.48;28.76
4123;BME280;2075;51.062;6.920;2023-04-09T07:22:50;92035.59;;;-144.48;27.94
4123;BME280;2075;51.062;6.920;2023-04-09T07:25:36;92230.50;;;-144.48;27.71
4123;BME280;2075;51.062;6.920;2023-04-09T07:28:21;92405.13;;;-144.48;28.90
4123;BME280;2075;51.062;6.920;2023-04-09T07:31:06;92145.22;;;-144.48;28.33
4123;BME280;2075;51.062;6.920;2023-04-09T07:33:52;92236.59;;;-144.48;28.11
4123;BME280;2075;51.062;6.920;2023-04-09T07:36:39;92533.06;;;-144.48;28.83
4123;BME280;2075;51.062;6.920;2023-04-09T07:39:29;92323.91;;;-144.48;28.02
4123;BME280;2075;51.062;6.920;2023-04-09T07:42:14;92392.97;;;-144.48;28.36
4123;BME280;2075;51.062;6.920;2023-04-09T07:45:00;92522.91;;;-144.48;29.13
4123;BME280;2075;51.062;6.920;2023-04-09T07:47:46;92435.59;;;-144.48;28.71
4123;BME280;2075;51.062;6.920;2023-04-09T07:50:31;92321.88;;;-144.48;28.29
4123;BME280;2075;51.062;6.920;2023-04-09T07:53:18;92366.56;;;-144.48;28.68
4123;BME280;2075;51.062;6.920;2023-04-09T07:56:04;92029.50;;;-144.48;27.19
4123;BME280;2075;51.062;6.920;2023-04-09T07:58:50;92202.09;;;-144.48;27.79
4123;BME280;2075;51.062;6.920;2023-04-09T08:01:35;92068.06;;;-144.48;27.23
4123;BME280;2075;51.062;6.920;2023-04-09T08:04:21;92068.06;;;-144.48;27.31
4123;BME280;2075;51.062;6.920;2023-04-09T08:07:06;91848.81;;;-144.48;26.70
4123;BME280;2075;51.062;6.920;2023-04-09T08:09:53;91995.00;;;-144.48;27.07
4123;BME280;2075;51.062;6.920;2023-04-09T08:12:38;92439.66;;;-144.48;27.55
4123;BME280;2075;51.062;6.920;2023-04-09T08:15:24;92102.59;;;-144.48;27.30
4123;BME280;2075;51.062;6.920;2023-04-09T08:18:10;91984.84;;;-144.48;27.28
4123;BME280;2075;51.062;6.920;2023-04-09T08:20:56;91962.50;;;-144.48;26.51
4123;BME280;2075;51.062;6.920;2023-04-09T08:23:42;92064.03;;;-144.48;27.03
4123;BME280;2075;51.062;6.920;2023-04-09T08:26:28;91680.31;;;-144.48;25.94
4123;BME280;2075;51.062;6.920;2023-04-09T08:29:14;91938.13;;;-144.48;26.63
4123;BME280;2075;51.062;6.920;2023-04-09T08:31:59;91765.56;;;-144.48;25.58
4123;BME280;2075;51.062;6.920;2023-04-09T08:34:45;91919.88;;;-144.48;26.34
4123;BME280;2075;51.062;6.920;2023-04-09T08:37:30;91755.41;;;-144.48;26.05
4123;BME280;2075;51.062;6.920;2023-04-09T08:40:16;91889.41;;;-144.48;26.12
4123;BME280;2075;51.062;6.920;2023-04-09T08:43:04;91481.34;;;-144.48;24.93
4123;BME280;2075;51.062;6.920;2023-04-09T08:45:49;91162.66;;;-144.48;24.35
4123;BME280;2075;51.062;6.920;2023-04-09T08:48:35;91182.94;;;-144.48;23.90
4123;BME280;2075;51.062;6.920;2023-04-09T08:51:22;91564.59;;;-144.48;24.84
4123;BME280;2075;51.062;6.920;2023-04-09T08:54:08;92699.59;;;-144.48;28.66
4123;BME280;2075;51.062;6.920;2023-04-09T08:56:54;93371.81;;;-144.48;33.03
4123;BME280;2075;51.062;6.920;2023-04-09T08:59:42;93715.09;;;-144.48;36.07
4123;BME280;2075;51.062;6.920;2023-04-09T09:02:27;93794.31;;;-144.48;37.16
4123;BME280;2075;51.062;6.920;2023-04-09T09:05:14;93820.72;;;-144.48;37.58
4123;BME280;2075;51.062;6.920;2023-04-09T09:08:00;93881.69;;;-144.48;39.84
4123;BME280;2075;51.062;6.920;2023-04-09T09:10:46;93895.91;;;-144.48;39.79
4123;BME280;2075;51.062;6.920;2023-04-09T09:13:31;93871.50;;;-144.48;40.35
4123;BME280;2075;51.062;6.920;2023-04-09T09:16:18;93904.03;;;-144.48;40.94
4123;BME280;2075;51.062;6.920;2023-04-09T09:19:04;93993.41;;;-144.48;40.63
4123;BME280;2075;51.062;6.920;2023-04-09T09:21:54;93971.06;;;-144.48;40.22
4123;BME280;2075;51.062;6.920;2023-04-09T09:24:44;93934.50;;;-144.48;40.60
4123;BME280;2075;51.062;6.920;2023-04-09T09:27:32;93940.59;;;-144.48;40.29
4123;BME280;2075;51.062;6.920;2023-04-09T09:30:20;93908.09;;;-144.48;40.23
4123;BME280;2075;51.062;6.920;2023-04-09T09:33:08;93967.00;;;-144.48;39.45
4123;BME280;2075;51.062;6.920;2023-04-09T09:35:54;93948.72;;;-144.48;39.92
4123;BME280;2075;51.062;6.920;2023-04-09T09:38:51;93887.78;;;-144.48;38.63
4123;BME280;2075;51.062;6.920;2023-04-09T09:41:37;93902.00;;;-144.48;39.03
4123;BME280;2075;51.062;6.920;2023-04-09T09:44:30;93887.78;;;-144.48;38.96
4123;BME280;2075;51.062;6.920;2023-04-09T09:47:17;93944.66;;;-144.48;39.57
4123;BME280;2075;51.062;6.920;2023-04-09T09:50:06;93891.84;;;-144.48;40.05
4123;BME280;2075;51.062;6.920;2023-04-09T09:52:57;93948.72;;;-144.48;40.56
4123;BME280;2075;51.062;6.920;2023-04-09T09:55:48;93867.47;;;-144.48;39.34
4123;BME280;2075;51.062;6.920;2023-04-09T09:58:41;93964.97;;;-144.48;38.28
4123;BME280;2075;51.062;6.920;2023-04-09T10:01:29;93912.16;;;-144.48;38.84
4123;BME280;2075;51.062;6.920;2023-04-09T10:04:15;93887.78;;;-144.48;39.16
4123;BME280;2075;51.062;6.920;2023-04-09T10:07:05;93928.41;;;-144.48;37.77
4123;BME280;2075;51.062;6.920;2023-04-09T10:09:52;93910.13;;;-144.48;38.53
4123;BME280;2075;51.062;6.920;2023-04-09T10:12:38;93956.84;;;-144.48;38.70
4123;BME280;2075;51.062;6.920;2023-04-09T10:15:25;93993.41;;;-144.48;38.72
4123;BME280;2075;51.062;6.920;2023-04-09T10:18:10;93936.53;;;-144.48;39.33
4123;BME280;2075;51.062;6.920;2023-04-09T10:20:57;94074.66;;;-144.48;38.61
4123;BME280;2075;51.062;6.920;2023-04-09T10:23:47;93934.50;;;-144.48;39.55
4123;BME280;2075;51.062;6.920;2023-04-09T10:26:34;93928.41;;;-144.48;38.97
4123;BME280;2075;51.062;6.920;2023-04-09T10:29:27;93908.09;;;-144.48;38.24
4123;BME280;2075;51.062;6.920;2023-04-09T10:32:17;93849.16;;;-144.48;37.63
4123;BME280;2075;51.062;6.920;2023-04-09T10:35:04;93794.31;;;-144.48;37.10
4123;BME280;2075;51.062;6.920;2023-04-09T10:37:50;93802.44;;;-144.48;36.63
4123;BME280;2075;51.062;6.920;2023-04-09T10:40:46;93774.00;;;-144.48;37.34
4123;BME280;2075;51.062;6.920;2023-04-09T10:43:33;93780.09;;;-144.48;37.19
4123;BME280;2075;51.062;6.920;2023-04-09T10:46:27;93865.44;;;-144.48;37.37
4123;BME280;2075;51.062;6.920;2023-04-09T10:49:15;93875.59;;;-144.48;37.76
4123;BME280;2075;51.062;6.920;2023-04-09T10:52:02;93818.69;;;-144.48;37.90
4123;BME280;2075;51.062;6.920;2023-04-09T10:54:49;93802.44;;;-144.48;38.16
4123;BME280;2075;51.062;6.920;2023-04-09T10:57:36;93849.16;;;-144.48;38.21
4123;BME280;2075;51.062;6.920;2023-04-09T11:00:22;93790.25;;;-144.48;37.92
4123;BME280;2075;51.062;6.920;2023-04-09T11:03:21;93761.81;;;-144.48;37.91
4123;BME280;2075;51.062;6.920;2023-04-09T11:06:08;93637.91;;;-144.48;36.41
4123;BME280;2075;51.062;6.920;2023-04-09T11:08:53;93753.69;;;-144.48;37.08
4123;BME280;2075;51.062;6.920;2023-04-09T11:11:39;93711.03;;;-144.48;37.09
4123;BME280;2075;51.062;6.920;2023-04-09T11:14:26;93721.19;;;-144.48;36.92
4123;BME280;2075;51.062;6.920;2023-04-09T11:17:11;93721.19;;;-144.48;36.63
4123;BME280;2075;51.062;6.920;2023-04-09T11:19:58;93702.91;;;-144.48;36.73
4123;BME280;2075;51.062;6.920;2023-04-09T11:22:45;93696.81;;;-144.48;37.38
4123;BME280;2075;51.062;6.920;2023-04-09T11:25:31;93698.84;;;-144.48;37.51
4123;BME280;2075;51.062;6.920;2023-04-09T11:28:18;93646.03;;;-144.48;37.30
4123;BME280;2075;51.062;6.920;2023-04-09T11:31:05;93631.81;;;-144.48;35.73
4123;BME280;2075;51.062;6.920;2023-04-09T11:33:50;93514.00;;;-144.48;34.82
4123;BME280;2075;51.062;6.920;2023-04-09T11:36:36;93583.06;;;-144.48;34.74
4123;BME280;2075;51.062;6.920;2023-04-09T11:39:21;93564.78;;;-144.48;34.76
4123;BME280;2075;51.062;6.920;2023-04-09T11:42:07;93438.84;;;-144.48;34.20
4123;BME280;2075;51.062;6.920;2023-04-09T11:44:58;93357.59;;;-144.48;33.63
4123;BME280;2075;51.062;6.920;2023-04-09T11:47:45;93363.69;;;-144.48;33.76
4123;BME280;2075;51.062;6.920;2023-04-09T11:50:31;93396.19;;;-144.48;34.26
4123;BME280;2075;51.062;6.920;2023-04-09T11:53:20;93286.50;;;-144.48;33.52
4123;BME280;2075;51.062;6.920;2023-04-09T11:56:05;93268.25;;;-144.48;32.76
4123;BME280;2075;51.062;6.920;2023-04-09T11:58:53;93282.44;;;-144.48;32.97
4123;BME280;2075;51.062;6.920;2023-04-09T12:01:39;93327.13;;;-144.48;33.14
4123;BME280;2075;51.062;6.920;2023-04-09T12:04:26;93262.16;;;-144.48;33.10
4123;BME280;2075;51.062;6.920;2023-04-09T12:07:11;93406.34;;;-144.48;33.79
4123;BME280;2075;51.062;6.920;2023-04-09T12:10:02;93493.69;;;-144.48;34.32
4123;BME280;2075;51.062;6.920;2023-04-09T12:12:48;93432.75;;;-144.48;34.47
4123;BME280;2075;51.062;6.920;2023-04-09T12:15:34;93530.25;;;-144.48;34.55
4123;BME280;2075;51.062;6.920;2023-04-09T12:18:20;93530.25;;;-144.48;34.94
4123;BME280;2075;51.062;6.920;2023-04-09T12:21:08;93485.56;;;-144.48;34.30
4123;BME280;2075;51.062;6.920;2023-04-09T12:23:53;93522.13;;;-144.48;34.87
4123;BME280;2075;51.062;6.920;2023-04-09T12:26:38;93467.28;;;-144.48;34.55
4123;BME280;2075;51.062;6.920;2023-04-09T12:29:24;93546.50;;;-144.48;34.53
4123;BME280;2075;51.062;6.920;2023-04-09T12:32:10;93680.56;;;-144.48;35.45
4123;BME280;2075;51.062;6.920;2023-04-09T12:34:55;93662.28;;;-144.48;36.15
4123;BME280;2075;51.062;6.920;2023-04-09T12:37:42;93652.13;;;-144.48;35.98
4123;BME280;2075;51.062;6.920;2023-04-09T12:40:27;93690.72;;;-144.48;35.88
4123;BME280;2075;51.062;6.920;2023-04-09T12:43:13;93644.00;;;-144.48;35.86
4123;BME280;2075;51.062;6.920;2023-04-09T12:45:58;93605.41;;;-144.48;35.65
4123;BME280;2075;51.062;6.920;2023-04-09T12:48:44;93483.53;;;-144.48;35.87
4123;BME280;2075;51.062;6.920;2023-04-09T12:51:29;93564.78;;;-144.48;36.08
4123;BME280;2075;51.062;6.920;2023-04-09T12:54:17;93666.34;;;-144.48;36.03
4123;BME280;2075;51.062;6.920;2023-04-09T12:57:02;93607.44;;;-144.48;35.62
4123;BME280;2075;51.062;6.920;2023-04-09T12:59:48;93542.44;;;-144.48;35.29
4123;BME280;2075;51.062;6.920;2023-04-09T13:02:33;93516.03;;;-144.48;35.11
4123;BME280;2075;51.062;6.920;2023-04-09T13:05:18;93542.44;;;-144.48;34.95
4123;BME280;2075;51.062;6.920;2023-04-09T13:08:04;93546.50;;;-144.48;35.30
4123;BME280;2075;51.062;6.920;2023-04-09T13:10:51;93499.78;;;-144.48;35.63
4123;BME280;2075;51.062;6.920;2023-04-09T13:13:40;93495.72;;;-144.48;34.96
4123;BME280;2075;51.062;6.920;2023-04-09T13:16:26;93509.94;;;-144.48;35.75
4123;BME280;2075;51.062;6.920;2023-04-09T13:19:11;93489.63;;;-144.48;35.32
4123;BME280;2075;51.062;6.920;2023-04-09T13:21:56;93570.88;;;-144.48;35.62
4123;BME280;2075;51.062;6.920;2023-04-09T13:24:42;93522.13;;;-144.48;35.61
4123;BME280;2075;51.062;6.920;2023-04-09T13:27:29;93499.78;;;-144.48;35.28
4123;BME280;2075;51.062;6.920;2023-04-09T13:30:15;93424.63;;;-144.48;34.77
4123;BME280;2075;51.062;6.920;2023-04-09T13:33:00;93509.94;;;-144.48;34.52
4123;BME280;2075;51.062;6.920;2023-04-09T13:35:46;93536.34;;;-144.48;34.10
4123;BME280;2075;51.062;6.920;2023-04-09T13:38:32;93501.81;;;-144.48;34.84
4123;BME280;2075;51.062;6.920;2023-04-09T13:41:17;93593.22;;;-144.48;34.25
4123;BME280;2075;51.062;6.920;2023-04-09T13:44:04;93428.69;;;-144.48;33.90
4123;BME280;2075;51.062;6.920;2023-04-09T13:46:49;93412.44;;;-144.48;34.07
4123;BME280;2075;51.062;6.920;2023-04-09T13:49:35;93481.50;;;-144.48;33.89
4123;BME280;2075;51.062;6.920;2023-04-09T13:52:21;93457.13;;;-144.48;33.71
4123;BME280;2075;51.062;6.920;2023-04-09T13:55:08;93398.22;;;-144.48;33.34
4123;BME280;2075;51.062;6.920;2023-04-09T13:57:54;93276.38;;;-144.48;32.71
4123;BME280;2075;51.062;6.920;2023-04-09T14:00:41;93312.91;;;-144.48;32.71
4123;BME280;2075;51.062;6.920;2023-04-09T14:03:27;93384.00;;;-144.48;32.97
4123;BME280;2075;51.062;6.920;2023-04-09T14:06:12;93420.56;;;-144.48;33.31
4123;BME280;2075;51.062;6.920;2023-04-09T14:08:58;93312.91;;;-144.48;33.14
4123;BME280;2075;51.062;6.920;2023-04-09T14:11:44;93329.16;;;-144.48;33.28
4123;BME280;2075;51.062;6.920;2023-04-09T14:14:29;93457.13;;;-144.48;34.02
4123;BME280;2075;51.062;6.920;2023-04-09T14:17:17;93436.81;;;-144.48;34.42
4123;BME280;2075;51.062;6.920;2023-04-09T14:20:03;93471.34;;;-144.48;35.02
4123;BME280;2075;51.062;6.920;2023-04-09T14:22:49;93538.38;;;-144.48;35.04
4123;BME280;2075;51.062;6.920;2023-04-09T14:25:35;93583.06;;;-144.48;35.21
4123;BME280;2075;51.062;6.920;2023-04-09T14:28:21;93619.63;;;-144.48;34.78
4123;BME280;2075;51.062;6.920;2023-04-09T14:31:06;93654.16;;;-144.48;35.43
4123;BME280;2075;51.062;6.920;2023-04-09T14:33:53;93615.56;;;-144.48;35.58
4123;BME280;2075;51.062;6.920;2023-04-09T14:36:38;93652.13;;;-144.48;35.76
4123;BME280;2075;51.062;6.920;2023-04-09T14:39:24;93623.69;;;-144.48;35.97